Time;durP1;ratioP1;P1;durP2;ratioP2;P2;SDS_P1;SDS_P2;PMS_P1;PMS_P2;Temp;Humidity;BMP_temperature;BMP_pressure;BME280_temperature;BME280_humidity;BME280_pressure;Samples;Min_cycle;Max_cycle;Signal;HPM_P1;HPM_P2
2021/09/17 00:01:44;;;;;;;;;;;;;;;;;;10321880;28;19940;-71
2021/09/17 00:06:51;;;;;;;;;;;;;;;;;;10339809;28;20125;-71
2021/09/17 00:11:56;;;;;;;;;;;;;;;;;;10338953;28;19926;-72
2021/09/17 00:16:58;;;;;;;;;;;;;;;;;;10337363;28;20435;-74
2021/09/17 00:22:01;;;;;;;;;;;;;;;;;;10354378;28;19926;-73
2021/09/17 00:27:04;;;;;;;;;;;;;;;;;;10353830;28;19937;-73
2021/09/17 00:32:07;;;;;;;;;;;;;;;;;;10338086;28;19926;-72
2021/09/17 00:37:10;;;;;;;;;;;;;;;;;;10352915;28;19925;-73
2021/09/17 00:42:14;;;;;;;;;;;;;;;;;;10337678;28;20013;-73
2021/09/17 00:47:17;;;;;;;;;;;;;;;;;;10336511;28;20282;-73
2021/09/17 00:52:20;;;;;;;;;;;;;;;;;;10337452;28;20012;-73
2021/09/17 00:57:23;;;;;;;;;;;;;;;;;;10337877;28;19925;-73
2021/09/17 01:02:25;;;;;;;;;;;;;;;;;;10337208;28;19933;-71
2021/09/17 01:07:28;;;;;;;;;;;;;;;;;;10351641;28;20289;-71
2021/09/17 01:12:31;;;;;;;;;;;;;;;;;;10351526;28;20350;-74
2021/09/17 01:17:34;;;;;;;;;;;;;;;;;;10336371;28;19929;-72
2021/09/17 01:22:38;;;;;;;;;;;;;;;;;;10351326;28;19933;-74
2021/09/17 01:27:40;;;;;;;;;;;;;;;;;;10351857;28;20401;-73
2021/09/17 01:32:44;;;;;;;;;;;;;;;;;;10335477;28;19945;-72
2021/09/17 01:37:46;;;;;;;;;;;;;;;;;;10335999;28;19926;-74
2021/09/17 01:42:49;;;;;;;;;;;;;;;;;;10336020;28;19926;-73
2021/09/17 01:47:55;;;;;;;;;;;;;;;;;;10335793;28;19926;-73
2021/09/17 01:53:01;;;;;;;;;;;;;;;;;;10334976;28;19929;-72
2021/09/17 01:58:03;;;;;;;;;;;;;;;;;;10350120;28;20333;-72
2021/09/17 02:03:07;;;;;;;;;;;;;;;;;;10335819;28;19933;-72
2021/09/17 02:08:12;;;;;;;;;;;;;;;;;;10317558;28;20305;-72
2021/09/17 02:13:19;;;;;;;;;;;;;;;;;;10334267;28;19930;-73
2021/09/17 02:18:22;;;;;;;;;;;;;;;;;;10333633;28;19925;-72
2021/09/17 02:23:24;;;;;;;;;;;;;;;;;;10334580;28;19933;-74
2021/09/17 02:28:27;;;;;;;;;;;;;;;;;;10334007;28;20282;-75
2021/09/17 02:33:31;;;;;;;;;;;;;;;;;;10316539;28;19926;-71
2021/09/17 02:38:33;;;;;;;;;;;;;;;;;;10333175;28;19929;-72
2021/09/17 02:43:36;;;;;;;;;;;;;;;;;;10333704;28;19961;-74
2021/09/17 02:48:38;;;;;;;;;;;;;;;;;;10330985;28;19926;-71
2021/09/17 02:53:44;;;;;;;;;;;;;;;;;;10332932;28;20009;-72
2021/09/17 02:58:46;;;;;;;;;;;;;;;;;;10315755;28;19930;-71
2021/09/17 03:03:49;;;;;;;;;;;;;;;;;;10332973;28;19929;-74
2021/09/17 03:08:54;;;;;;;;;;;;;;;;;;10333281;28;19925;-72
2021/09/17 03:13:56;;;;;;;;;;;;;;;;;;10332606;28;19925;-71
2021/09/17 03:19:00;;;;;;;;;;;;;;;;;;10333090;28;19925;-73
2021/09/17 03:24:06;;;;;;;;;;;;;;;;;;10333122;28;20404;-74
2021/09/17 03:29:08;;;;;;;;;;;;;;;;;;10319597;28;19926;-73
2021/09/17 03:34:11;;;;;;;;;;;;;;;;;;10322802;28;19925;-74
2021/09/17 03:39:15;;;;;;;;;;;;;;;;;;10339790;28;19984;-71
2021/09/17 03:44:20;;;;;;;;;;;;;;;;;;10340535;28;20397;-72
2021/09/17 03:49:23;;;;;;;;;;;;;;;;;;10339990;28;19940;-71
2021/09/17 03:54:29;;;;;;;;;;;;;;;;;;10339396;28;20403;-72
2021/09/17 03:59:31;;;;;;;;;;;;;;;;;;10339810;28;19926;-72
2021/09/17 04:04:34;;;;;;;;;;;;;;;;;;10306419;28;19926;-71
2021/09/17 04:09:40;;;;;;;;;;;;;;;;;;10321360;28;19936;-74
2021/09/17 04:14:43;;;;;;;;;;;;;;;;;;10321757;28;19961;-71
2021/09/17 04:19:49;;;;;;;;;;;;;;;;;;10339218;28;20408;-73
2021/09/17 04:24:53;;;;;;;;;;;;;;;;;;10338810;28;20361;-73
2021/09/17 04:29:55;;;;;;;;;;;;;;;;;;10338137;28;20134;-71
2021/09/17 04:34:58;;;;;;;;;;;;;;;;;;10321273;28;20349;-71
2021/09/17 04:40:00;;;;;;;;;;;;;;;;;;10319872;28;19933;-73
2021/09/17 04:45:04;;;;;;;;;;;;;;;;;;10338493;28;19980;-71
2021/09/17 04:50:06;;;;;;;;;;;;;;;;;;10320754;28;19926;-71
2021/09/17 04:55:18;;;;;;;;;;;;;;;;;;10337423;28;19933;-72
2021/09/17 05:00:20;;;;;;;;;;;;;;;;;;10334220;28;20470;-74
2021/09/17 05:05:24;;;;;;;;;;;;;;;;;;10315808;28;19933;-74
2021/09/17 05:10:27;;;;;;;;;;;;;;;;;;10317913;28;20021;-71
2021/09/17 05:15:31;;;;;;;;;;;;;;;;;;10336000;28;19932;-73
2021/09/17 05:20:33;;;;;;;;;;;;;;;;;;10316985;28;19933;-73
2021/09/17 05:25:36;;;;;;;;;;;;;;;;;;10331899;28;20310;-75
2021/09/17 05:30:38;;;;;;;;;;;;;;;;;;10328780;28;19926;-72
2021/09/17 05:35:42;;;;;;;;;;;;;;;;;;10331047;28;19957;-72
2021/09/17 05:40:45;;;;;;;;;;;;;;;;;;10332245;28;19949;-71
2021/09/17 05:45:49;;;;;;;;;;;;;;;;;;10335017;28;19932;-72
2021/09/17 05:50:51;;;;;;;;;;;;;;;;;;10334066;28;19937;-74
2021/09/17 05:55:54;;;;;;;;;;;;;;;;;;10334750;28;19926;-72
2021/09/17 06:00:59;;;;;;;;;;;;;;;;;;10328685;28;19929;-72
2021/09/17 06:06:03;;;;;;;;;;;;;;;;;;10329241;28;19933;-71
2021/09/17 06:11:06;;;;;;;;;;;;;;;;;;10328300;28;19930;-72
2021/09/17 06:16:11;;;;;;;;;;;;;;;;;;10332061;28;19926;-74
2021/09/17 06:21:17;;;;;;;;;;;;;;;;;;10333984;28;19964;-60
2021/09/17 06:26:19;;;;;;;;;;;;;;;;;;10328793;28;19932;-60
2021/09/17 06:31:22;;;;;;;;;;;;;;;;;;10333362;28;19926;-60
2021/09/17 06:36:28;;;;;;;;;;;;;;;;;;10332608;28;20020;-58
2021/09/17 06:41:30;;;;;;;;;;;;;;;;;;10332983;28;19941;-62
2021/09/17 06:46:33;;;;;;;;;;;;;;;;;;10333669;28;19926;-59
2021/09/17 06:51:35;;;;;;;;;;;;;;;;;;10332522;28;19937;-62
2021/09/17 06:56:37;;;;;;;;;;;;;;;;;;10333351;28;19933;-59
2021/09/17 07:01:40;;;;;;;;;;;;;;;;;;10333077;28;19925;-59
2021/09/17 07:06:42;;;;;;;;;;;;;;;;;;10331397;28;19965;-60
2021/09/17 07:11:45;;;;;;;;;;;;;;;;;;10326772;28;19934;-62
2021/09/17 07:16:47;;;;;;;;;;;;;;;;;;10323051;28;19933;-61
2021/09/17 07:21:50;;;;;;;;;;;;;;;;;;10326105;28;19926;-60
2021/09/17 07:26:52;;;;;;;;;;;;;;;;;;10319466;28;19926;-60
2021/09/17 07:31:54;;;;;;;;;;;;;;;;;;10305162;28;19930;-60
2021/09/17 07:36:57;;;;;;;;;;;;;;;;;;10323537;28;20020;-60
2021/09/17 07:41:59;;;;;;;;;;;;;;;;;;10323326;28;19926;-60
2021/09/17 07:47:02;;;;;;;;;;;;;;;;;;10323741;28;20052;-60
2021/09/17 07:52:04;;;;;;;;;;;;;;;;;;10324030;28;19930;-61
2021/09/17 07:57:06;;;;;;;;;;;;;;;;;;10323646;28;19968;-61
2021/09/17 08:02:09;;;;;;;;;;;;;;;;;;10323673;28;19929;-60
2021/09/17 08:07:12;;;;;;;;;;;;;;;;;;10323917;28;20035;-59
2021/09/17 08:12:14;;;;;;;;;;;;;;;;;;10322963;28;19932;-59
2021/09/17 08:17:16;;;;;;;;;;;;;;;;;;10325958;28;19941;-59
2021/09/17 08:22:19;;;;;;;;;;;;;;;;;;10330688;28;19930;-60
2021/09/17 08:27:22;;;;;;;;;;;;;;;;;;10329441;28;19937;-58
2021/09/17 08:32:24;;;;;;;;;;;;;;;;;;10332479;28;19930;-58
2021/09/17 08:37:27;;;;;;;;;;;;;;;;;;10415358;23;20008;-58
2021/09/17 08:42:30;;;;;;;;;;;;;;;;;;10232991;29;19927;-60
2021/09/17 08:47:32;;;;;;;;;;;;;;;;;;10250854;29;20360;-60
2021/09/17 08:52:35;;;;;;;;;;;;;;;;;;10251774;29;19936;-61
2021/09/17 08:57:38;;;;;;;;;;;;;;;;;;10249617;29;19930;-58
2021/09/17 09:02:40;;;;;;;;;;;;;;;;;;10251886;29;20313;-59
2021/09/17 09:07:44;;;;;;;;;;;;;;;;;;10249892;29;19930;-59
2021/09/17 09:12:47;;;;;;;;;;;;;;;;;;10268055;28;19926;-60
2021/09/17 09:17:49;;;;;;;;;;;;;;;;;;10288226;28;19998;-61
2021/09/17 09:22:51;;;;;;;;;;;;;;;;;;10290854;28;19930;-61
2021/09/17 09:27:54;;;;;;;;;;;;;;;;;;10276851;28;19946;-61
2021/09/17 09:32:56;;;;;;;;;;;;;;;;;;10250306;29;20047;-61
2021/09/17 09:37:59;;;;;;;;;;;;;;;;;;10250241;29;19934;-60
2021/09/17 09:43:01;;;;;;;;;;;;;;;;;;10246526;29;20301;-62
2021/09/17 09:48:03;;;;;;;;;;;;;;;;;;10248492;29;19949;-57
2021/09/17 09:53:06;;;;;;;;;;;;;;;;;;10248146;29;20302;-61
2021/09/17 09:58:08;;;;;;;;;;;;;;;;;;10247384;29;20684;-59
2021/09/17 10:03:11;;;;;;;;;;;;;;;;;;10247416;29;19931;-59
2021/09/17 10:08:13;;;;;;;;;;;;;;;;;;10246814;29;19934;-58
2021/09/17 10:13:15;;;;;;;;;;;;;;;;;;10246167;29;19930;-61
2021/09/17 10:18:18;;;;;;;;;;;;;;;;;;10242505;29;19949;-60
2021/09/17 10:23:20;;;;;;;;;;;;;;;;;;10246800;29;19937;-60
2021/09/17 10:28:23;;;;;;;;;;;;;;;;;;10245024;29;20293;-59
2021/09/17 10:33:25;;;;;;;;;;;;;;;;;;10228968;29;19926;-60
2021/09/17 10:38:29;;;;;;;;;;;;;;;;;;10245175;28;20009;-60
2021/09/17 10:43:32;;;;;;;;;;;;;;;;;;10244951;29;19934;-62
2021/09/17 10:48:42;;;;;;;;;;;;;;;;;;10245571;29;19999;-61
2021/09/17 10:53:45;;;;;;;;;;;;;;;;;;10244434;29;19934;-58
2021/09/17 10:58:48;;;;;;;;;;;;;;;;;;10245290;29;19938;-60
2021/09/17 11:03:50;;;;;;;;;;;;;;;;;;10245397;29;19934;-60
2021/09/17 11:08:53;;;;;;;;;;;;;;;;;;10245001;29;19974;-59
2021/09/17 11:13:55;;;;;;;;;;;;;;;;;;10270989;28;19926;-62
2021/09/17 11:19:00;;;;;;;;;;;;;;;;;;10282083;28;19934;-59
2021/09/17 11:24:03;;;;;;;;;;;;;;;;;;10284605;28;19934;-59
2021/09/17 11:29:05;;;;;;;;;;;;;;;;;;10277386;28;19930;-59
2021/09/17 11:34:08;;;;;;;;;;;;;;;;;;10246886;29;20021;-59
2021/09/17 11:39:10;;;;;;;;;;;;;;;;;;10247004;29;19930;-59
2021/09/17 11:44:12;;;;;;;;;;;;;;;;;;10246806;29;19942;-60
2021/09/17 11:49:15;;;;;;;;;;;;;;;;;;10249197;28;19930;-61
2021/09/17 11:54:20;;;;;;;;;;;;;;;;;;10254469;29;20462;-59
2021/09/17 11:59:22;;;;;;;;;;;;;;;;;;10254151;29;19941;-62
2021/09/17 12:04:25;;;;;;;;;;;;;;;;;;10225522;29;19927;-59
2021/09/17 12:09:27;;;;;;;;;;;;;;;;;;10217774;29;20018;-61
2021/09/17 12:14:30;;;;;;;;;;;;;;;;;;10217500;29;19927;-61
2021/09/17 12:19:32;;;;;;;;;;;;;;;;;;10217358;29;20009;-60
2021/09/17 12:24:36;;;;;;;;;;;;;;;;;;10217141;29;19934;-59
2021/09/17 12:29:39;;;;;;;;;;;;;;;;;;10217197;29;19934;-57
2021/09/17 12:34:41;;;;;;;;;;;;;;;;;;10219447;29;19934;-63
2021/09/17 12:39:44;;;;;;;;;;;;;;;;;;10256063;29;20442;-63
2021/09/17 12:44:49;;;;;;;;;;;;;;;;;;10255578;29;19927;-63
2021/09/17 12:49:51;;;;;;;;;;;;;;;;;;10252447;29;19957;-58
2021/09/17 12:54:54;;;;;;;;;;;;;;;;;;10251635;29;19933;-63
2021/09/17 12:59:56;;;;;;;;;;;;;;;;;;10251540;28;19984;-62
2021/09/17 13:04:59;;;;;;;;;;;;;;;;;;10248652;29;19926;-58
2021/09/17 13:10:01;;;;;;;;;;;;;;;;;;10251262;29;20426;-63
2021/09/17 13:15:03;;;;;;;;;;;;;;;;;;10250719;29;19957;-62
2021/09/17 13:20:06;;;;;;;;;;;;;;;;;;10251194;29;19930;-58
2021/09/17 13:25:08;;;;;;;;;;;;;;;;;;10250868;29;19931;-63
2021/09/17 13:30:11;;;;;;;;;;;;;;;;;;10251269;29;19931;-58
2021/09/17 13:35:13;;;;;;;;;;;;;;;;;;10250796;29;19934;-64
2021/09/17 13:40:17;;;;;;;;;;;;;;;;;;10250402;29;19945;-59
2021/09/17 13:45:19;;;;;;;;;;;;;;;;;;10250064;28;19965;-59
2021/09/17 13:50:22;;;;;;;;;;;;;;;;;;10250756;28;19934;-59
2021/09/17 13:55:25;;;;;;;;;;;;;;;;;;10250187;29;19926;-66
2021/09/17 14:00:28;;;;;;;;;;;;;;;;;;10249501;29;19934;-64
2021/09/17 14:05:31;;;;;;;;;;;;;;;;;;10246928;29;19926;-64
2021/09/17 14:10:34;;;;;;;;;;;;;;;;;;10248868;29;19937;-59
2021/09/17 14:15:37;;;;;;;;;;;;;;;;;;10249013;28;19937;-63
2021/09/17 14:20:39;;;;;;;;;;;;;;;;;;10249208;29;19937;-59
2021/09/17 14:25:41;;;;;;;;;;;;;;;;;;10248575;29;19934;-63
2021/09/17 14:30:44;;;;;;;;;;;;;;;;;;10247997;29;19942;-64
2021/09/17 14:35:46;;;;;;;;;;;;;;;;;;10250874;29;20286;-63
2021/09/17 14:40:48;;;;;;;;;;;;;;;;;;10251817;29;20279;-59
2021/09/17 14:45:53;;;;;;;;;;;;;;;;;;10251262;29;21653;-63
2021/09/17 14:50:55;;;;;;;;;;;;;;;;;;10251958;29;19933;-59
2021/09/17 14:55:58;;;;;;;;;;;;;;;;;;10251629;29;19931;-59
2021/09/17 15:01:00;;;;;;;;;;;;;;;;;;10251477;29;19926;-60
2021/09/17 15:06:03;;;;;;;;;;;;;;;;;;10251917;29;20542;-60
2021/09/17 15:11:05;;;;;;;;;;;;;;;;;;10250202;29;19926;-61
2021/09/17 15:16:07;;;;;;;;;;;;;;;;;;10251222;29;19926;-60
2021/09/17 15:21:10;;;;;;;;;;;;;;;;;;10252086;29;19926;-60
2021/09/17 15:26:12;;;;;;;;;;;;;;;;;;10256604;28;19936;-60
2021/09/17 15:31:15;;;;;;;;;;;;;;;;;;10258970;29;19926;-59
2021/09/17 15:36:17;;;;;;;;;;;;;;;;;;10254234;28;20354;-60
2021/09/17 15:41:20;;;;;;;;;;;;;;;;;;10257893;29;19969;-59
2021/09/17 15:46:22;;;;;;;;;;;;;;;;;;10258550;29;19927;-59
2021/09/17 15:51:24;;;;;;;;;;;;;;;;;;10257536;29;19926;-60
2021/09/17 15:56:27;;;;;;;;;;;;;;;;;;10253643;29;19937;-60
2021/09/17 16:01:29;;;;;;;;;;;;;;;;;;10251884;29;20363;-60
2021/09/17 16:06:32;;;;;;;;;;;;;;;;;;10241082;29;20412;-60
2021/09/17 16:11:36;;;;;;;;;;;;;;;;;;10242375;29;20381;-59
2021/09/17 16:16:42;;;;;;;;;;;;;;;;;;10255735;28;20398;-60
2021/09/17 16:21:44;;;;;;;;;;;;;;;;;;10254715;28;19981;-60
2021/09/17 16:26:47;;;;;;;;;;;;;;;;;;10239701;28;19927;-60
2021/09/17 16:31:49;;;;;;;;;;;;;;;;;;10219264;29;19970;-60
2021/09/17 16:36:53;;;;;;;;;;;;;;;;;;10233474;28;19926;-60
2021/09/17 16:41:57;;;;;;;;;;;;;;;;;;10217179;29;20022;-60
2021/09/17 16:47:00;;;;;;;;;;;;;;;;;;10251930;29;19926;-60
2021/09/17 16:52:03;;;;;;;;;;;;;;;;;;10242412;28;19926;-59
2021/09/17 16:57:07;;;;;;;;;;;;;;;;;;10232896;29;19932;-59
2021/09/17 17:02:12;;;;;;;;;;;;;;;;;;10234550;29;19973;-59
2021/09/17 17:07:17;;;;;;;;;;;;;;;;;;10236634;29;19974;-59
2021/09/17 17:12:20;;;;;;;;;;;;;;;;;;10215719;29;20427;-59
2021/09/17 17:17:23;;;;;;;;;;;;;;;;;;10216394;29;20030;-58
2021/09/17 17:22:26;;;;;;;;;;;;;;;;;;10253822;29;19927;-60
2021/09/17 17:27:29;;;;;;;;;;;;;;;;;;10254384;28;19933;-59
2021/09/17 17:32:31;;;;;;;;;;;;;;;;;;10253746;28;19933;-59
2021/09/17 17:37:34;;;;;;;;;;;;;;;;;;10253493;29;20493;-59
2021/09/17 17:42:37;;;;;;;;;;;;;;;;;;10237186;29;19927;-59
2021/09/17 17:47:40;;;;;;;;;;;;;;;;;;10253264;28;20032;-59
2021/09/17 17:52:43;;;;;;;;;;;;;;;;;;10253267;28;19933;-59
2021/09/17 17:57:47;;;;;;;;;;;;;;;;;;10253944;29;19930;-59
2021/09/17 18:02:49;;;;;;;;;;;;;;;;;;10253850;29;19931;-60
2021/09/17 18:07:52;;;;;;;;;;;;;;;;;;10252849;29;19997;-59
2021/09/17 18:12:55;;;;;;;;;;;;;;;;;;10253051;29;20333;-59
2021/09/17 18:17:58;;;;;;;;;;;;;;;;;;10249255;29;20271;-70
2021/09/17 18:23:04;;;;;;;;;;;;;;;;;;10248513;29;20350;-70
2021/09/17 18:28:09;;;;;;;;;;;;;;;;;;10248121;29;19933;-72
2021/09/17 18:33:15;;;;;;;;;;;;;;;;;;10245888;29;19930;-71
2021/09/17 18:38:18;;;;;;;;;;;;;;;;;;10247510;29;20394;-71
2021/09/17 18:43:21;;;;;;;;;;;;;;;;;;10248420;29;19931;-71
2021/09/17 18:48:24;;;;;;;;;;;;;;;;;;10248948;29;19926;-71
2021/09/17 18:53:29;;;;;;;;;;;;;;;;;;10248207;29;19937;-71
2021/09/17 18:58:32;;;;;;;;;;;;;;;;;;10247261;28;19938;-69
2021/09/17 19:03:36;;;;;;;;;;;;;;;;;;10248848;28;19930;-70
2021/09/17 19:08:45;;;;;;;;;;;;;;;;;;10247375;29;19963;-70
2021/09/17 19:13:51;;;;;;;;;;;;;;;;;;10230785;28;19930;-71
2021/09/17 19:18:54;;;;;;;;;;;;;;;;;;10253369;28;19934;-72
2021/09/17 19:24:01;;;;;;;;;;;;;;;;;;10236327;29;20012;-71
2021/09/17 19:29:07;;;;;;;;;;;;;;;;;;10251207;29;20338;-73
2021/09/17 19:34:12;;;;;;;;;;;;;;;;;;10234196;29;19927;-74
2021/09/17 19:39:17;;;;;;;;;;;;;;;;;;10234141;29;19953;-74
2021/09/17 19:44:24;;;;;;;;;;;;;;;;;;10233509;29;19927;-70
2021/09/17 19:49:32;;;;;;;;;;;;;;;;;;10247535;29;19930;-73
2021/09/17 19:54:36;;;;;;;;;;;;;;;;;;10247130;29;20455;-72
2021/09/17 19:59:40;;;;;;;;;;;;;;;;;;10246587;29;19931;-69
2021/09/17 20:04:44;;;;;;;;;;;;;;;;;;10243997;29;19974;-73
2021/09/17 20:09:50;;;;;;;;;;;;;;;;;;10247583;28;19937;-73
2021/09/17 20:14:53;;;;;;;;;;;;;;;;;;10254531;29;19937;-73
2021/09/17 20:19:56;;;;;;;;;;;;;;;;;;10253087;29;19938;-72
2021/09/17 20:25:01;;;;;;;;;;;;;;;;;;10233754;29;20437;-72
2021/09/17 20:30:04;;;;;;;;;;;;;;;;;;10236941;29;19976;-72
2021/09/17 20:35:16;;;;;;;;;;;;;;;;;;10236081;29;19933;-73
2021/09/17 20:40:20;;;;;;;;;;;;;;;;;;10389780;23;19996;-73
2021/09/17 20:45:24;;;;;;;;;;;;;;;;;;10334713;28;19932;-74
2021/09/17 20:50:28;;;;;;;;;;;;;;;;;;10335064;28;19952;-71
2021/09/17 20:55:31;;;;;;;;;;;;;;;;;;10332477;28;19929;-72
2021/09/17 21:00:34;;;;;;;;;;;;;;;;;;10332827;28;19926;-73
2021/09/17 21:05:37;;;;;;;;;;;;;;;;;;10329117;28;20648;-71
2021/09/17 21:10:40;;;;;;;;;;;;;;;;;;10331982;28;19930;-73
2021/09/17 21:15:42;;;;;;;;;;;;;;;;;;10332231;28;19933;-73
2021/09/17 21:20:45;;;;;;;;;;;;;;;;;;10330845;28;19929;-71
2021/09/17 21:25:48;;;;;;;;;;;;;;;;;;10331794;28;20405;-73
2021/09/17 21:30:50;;;;;;;;;;;;;;;;;;10330339;28;19933;-71
2021/09/17 21:35:54;;;;;;;;;;;;;;;;;;10331445;28;20393;-72
2021/09/17 21:40:56;;;;;;;;;;;;;;;;;;10330769;28;20337;-73
2021/09/17 21:45:58;;;;;;;;;;;;;;;;;;10331232;28;19935;-74
2021/09/17 21:51:01;;;;;;;;;;;;;;;;;;10348544;28;19929;-72
2021/09/17 21:56:07;;;;;;;;;;;;;;;;;;10352017;28;19932;-72
2021/09/17 22:01:09;;;;;;;;;;;;;;;;;;10369739;28;20388;-71
2021/09/17 22:06:12;;;;;;;;;;;;;;;;;;10348266;28;19930;-72
2021/09/17 22:11:15;;;;;;;;;;;;;;;;;;10368540;28;19936;-74
2021/09/17 22:16:19;;;;;;;;;;;;;;;;;;10368532;28;19929;-73
2021/09/17 22:21:22;;;;;;;;;;;;;;;;;;10369824;28;19926;-74
2021/09/17 22:26:28;;;;;;;;;;;;;;;;;;10367400;28;19929;-74
2021/09/17 22:31:33;;;;;;;;;;;;;;;;;;10368610;28;19937;-73
2021/09/17 22:36:36;;;;;;;;;;;;;;;;;;10362959;28;20388;-77
2021/09/17 22:41:39;;;;;;;;;;;;;;;;;;10353382;28;20515;-72
2021/09/17 22:46:46;;;;;;;;;;;;;;;;;;10348707;28;19926;-76
2021/09/17 22:51:50;;;;;;;;;;;;;;;;;;10334615;28;20364;-77
2021/09/17 22:56:53;;;;;;;;;;;;;;;;;;10351496;28;19929;-77
2021/09/17 23:01:59;;;;;;;;;;;;;;;;;;10351063;28;19972;-73
2021/09/17 23:07:05;;;;;;;;;;;;;;;;;;10351006;28;19973;-77
2021/09/17 23:12:07;;;;;;;;;;;;;;;;;;10351291;28;19932;-72
2021/09/17 23:17:10;;;;;;;;;;;;;;;;;;10351356;28;19930;-77
2021/09/17 23:22:13;;;;;;;;;;;;;;;;;;10349445;28;19926;-77
2021/09/17 23:27:16;;;;;;;;;;;;;;;;;;10351631;28;19980;-72
2021/09/17 23:32:20;;;;;;;;;;;;;;;;;;10330878;28;19930;-77
2021/09/17 23:37:26;;;;;;;;;;;;;;;;;;10330646;28;20274;-77
2021/09/17 23:42:32;;;;;;;;;;;;;;;;;;10332276;28;19929;-72
2021/09/17 23:47:37;;;;;;;;;;;;;;;;;;10338659;28;19929;-77
2021/09/17 23:52:40;;;;;;;;;;;;;;;;;;10338695;28;19926;-76
2021/09/17 23:57:43;;;;;;;;;;;;;;;;;;10339816;28;19932;-72
